createdAt,value
2023-04-28T00:00:54.684Z,63.14
2023-04-28T00:03:23.070Z,63.17
2023-04-28T00:05:53.398Z,63.17
2023-04-28T00:08:23.729Z,63.17
2023-04-28T00:10:51.911Z,63.05
2023-04-28T00:13:20.194Z,63.04
2023-04-28T00:15:50.490Z,62.96
2023-04-28T00:18:20.438Z,63.39
2023-04-28T00:20:49.024Z,63.48
2023-04-28T00:23:17.518Z,63.69
2023-04-28T00:25:52.222Z,63.69
2023-04-28T00:28:32.878Z,63.77
2023-04-28T00:31:03.237Z,64.04
2023-04-28T00:33:31.522Z,64.40
2023-04-28T00:36:01.424Z,64.30
2023-04-28T00:38:30.041Z,64.33
2023-04-28T00:40:58.797Z,64.18
2023-04-28T00:43:27.414Z,64.43
2023-04-28T00:45:56.572Z,64.30
2023-04-28T00:48:25.307Z,64.59
2023-04-28T00:50:53.689Z,64.27
2023-04-28T00:53:22.281Z,64.12
2023-04-28T00:55:53.360Z,64.07
2023-04-28T00:58:21.964Z,64.20
2023-04-28T01:00:50.310Z,64.09
2023-04-28T01:03:19.079Z,63.95
2023-04-28T01:05:48.295Z,64.26
2023-04-28T01:08:16.777Z,64.35
2023-04-28T01:10:45.501Z,64.33
2023-04-28T01:13:20.915Z,64.49
2023-04-28T01:15:50.634Z,64.55
2023-04-28T01:18:19.116Z,64.64
2023-04-28T01:20:47.813Z,64.55
2023-04-28T01:23:17.470Z,64.74
2023-04-28T01:25:46.112Z,64.73
2023-04-28T01:28:14.433Z,65.00
2023-04-28T01:30:43.806Z,65.19
2023-04-28T01:33:12.186Z,64.82
2023-04-28T01:35:40.482Z,65.34
2023-04-28T01:38:11.616Z,65.25
2023-04-28T01:40:40.002Z,65.36
2023-04-28T01:43:08.293Z,65.72
2023-04-28T01:45:36.895Z,65.81
2023-04-28T01:48:05.942Z,66.01
2023-04-28T01:50:34.360Z,65.88
2023-04-28T01:53:04.795Z,66.06
2023-04-28T01:55:33.793Z,65.98
2023-04-28T01:58:02.485Z,65.95
2023-04-28T02:00:31.484Z,65.94
2023-04-28T02:02:59.977Z,65.79
2023-04-28T02:05:28.469Z,65.91
2023-04-28T02:07:56.946Z,65.67
2023-04-28T02:10:25.229Z,65.86
2023-04-28T02:12:53.507Z,65.98
2023-04-28T02:15:21.992Z,66.00
2023-04-28T02:17:50.733Z,66.10
2023-04-28T02:20:20.201Z,66.06
2023-04-28T02:22:50.216Z,65.97
2023-04-28T02:25:18.701Z,66.20
2023-04-28T02:27:47.290Z,66.37
2023-04-28T02:30:16.413Z,66.50
2023-04-28T02:32:45.048Z,66.64
2023-04-28T02:35:13.363Z,66.48
2023-04-28T02:37:41.747Z,66.66
2023-04-28T02:40:11.006Z,66.62
2023-04-28T02:42:39.251Z,66.75
2023-04-28T02:45:08.481Z,66.77
2023-04-28T02:47:37.267Z,66.75
2023-04-28T02:50:06.710Z,67.03
2023-04-28T02:52:35.023Z,67.91
2023-04-28T02:55:04.949Z,68.06
2023-04-28T02:57:33.641Z,67.97
2023-04-28T03:00:02.093Z,68.07
2023-04-28T03:02:34.588Z,67.82
2023-04-28T03:05:03.243Z,67.96
2023-04-28T03:07:31.785Z,68.36
2023-04-28T03:10:00.360Z,68.33
2023-04-28T03:12:28.755Z,69.25
2023-04-28T03:14:57.244Z,69.07
2023-04-28T03:17:25.760Z,69.25
2023-04-28T03:19:54.110Z,69.78
2023-04-28T03:22:22.705Z,69.42
2023-04-28T03:24:50.979Z,69.32
2023-04-28T03:27:19.926Z,69.49
2023-04-28T03:29:48.747Z,69.76
2023-04-28T03:32:17.078Z,69.56
2023-04-28T03:34:45.542Z,69.69
2023-04-28T03:37:14.233Z,69.71
2023-04-28T03:39:42.617Z,69.97
2023-04-28T03:42:11.105Z,69.91
2023-04-28T03:44:39.594Z,69.93
2023-04-28T03:47:08.660Z,70.54
2023-04-28T03:49:38.000Z,70.91
2023-04-28T03:52:06.697Z,71.21
2023-04-28T03:54:35.888Z,71.07
2023-04-28T03:57:04.701Z,70.89
2023-04-28T03:59:34.395Z,70.69
2023-04-28T04:02:02.933Z,70.81
2023-04-28T04:04:31.669Z,70.64
2023-04-28T04:07:01.109Z,70.40
2023-04-28T04:09:30.703Z,70.59
2023-04-28T04:11:59.288Z,70.45
2023-04-28T04:14:27.688Z,70.44
2023-04-28T04:16:56.168Z,70.69
2023-04-28T04:19:26.665Z,70.69
2023-04-28T04:21:56.858Z,70.18
2023-04-28T04:24:25.632Z,70.22
2023-04-28T04:26:54.415Z,70.27
2023-04-28T04:29:40.702Z,70.26
2023-04-28T04:32:13.789Z,70.29
2023-04-28T04:34:43.104Z,70.10
2023-04-28T04:37:12.817Z,70.31
2023-04-28T04:39:47.245Z,69.90
2023-04-28T04:42:24.890Z,70.01
2023-04-28T04:45:31.287Z,69.65
2023-04-28T04:47:59.974Z,69.54
2023-04-28T04:50:28.766Z,69.42
2023-04-28T04:52:58.506Z,69.00
2023-04-28T04:55:27.687Z,68.75
2023-04-28T04:57:56.479Z,68.54
2023-04-28T05:00:45.136Z,68.25
2023-04-28T05:03:14.760Z,68.00
2023-04-28T05:05:46.365Z,67.91
2023-04-28T05:08:30.133Z,67.34
2023-04-28T05:10:59.258Z,67.33
2023-04-28T05:13:27.615Z,67.08
2023-04-28T05:16:00.775Z,66.74
2023-04-28T05:18:37.280Z,66.24
2023-04-28T05:21:06.485Z,65.16
2023-04-28T05:23:37.944Z,65.04
2023-04-28T05:26:07.763Z,64.58
2023-04-28T05:28:36.553Z,64.26
2023-04-28T05:31:06.656Z,63.70
2023-04-28T05:33:35.142Z,63.64
2023-04-28T05:36:03.755Z,63.37
2023-04-28T05:38:34.002Z,62.83
2023-04-28T05:41:02.884Z,62.61
2023-04-28T05:43:34.240Z,62.09
2023-04-28T05:46:30.703Z,61.87
2023-04-28T05:49:02.822Z,62.24
2023-04-28T05:51:35.099Z,62.39
2023-04-28T05:54:03.910Z,62.42
2023-04-28T05:56:34.218Z,62.50
2023-04-28T05:59:05.434Z,62.51
2023-04-28T06:01:33.864Z,62.24
2023-04-28T06:04:02.502Z,62.10
2023-04-28T06:06:32.460Z,61.97
2023-04-28T06:09:02.180Z,62.12
2023-04-28T06:11:30.690Z,62.14
2023-04-28T06:13:59.151Z,61.97
2023-04-28T06:16:29.250Z,61.99
2023-04-28T06:18:58.837Z,61.48
2023-04-28T06:21:28.929Z,61.79
2023-04-28T06:24:02.233Z,61.58
2023-04-28T06:26:31.534Z,61.38
2023-04-28T06:28:59.653Z,61.08
2023-04-28T06:31:28.408Z,60.78
2023-04-28T06:33:57.177Z,58.88
2023-04-28T06:36:25.763Z,57.57
2023-04-28T06:38:54.691Z,56.45
2023-04-28T06:41:23.061Z,56.66
2023-04-28T06:43:53.597Z,56.75
2023-04-28T06:46:27.452Z,55.93
2023-04-28T06:48:58.735Z,55.07
2023-04-28T06:51:29.061Z,54.88
2023-04-28T06:53:57.561Z,54.90
2023-04-28T06:56:26.044Z,54.88
2023-04-28T06:58:57.523Z,54.04
2023-04-28T07:01:26.116Z,53.28
2023-04-28T07:03:54.971Z,53.14
2023-04-28T07:06:23.675Z,53.35
2023-04-28T07:08:52.470Z,52.15
2023-04-28T07:11:20.875Z,52.46
2023-04-28T07:13:51.659Z,52.09
2023-04-28T07:16:21.696Z,52.20
2023-04-28T07:18:50.410Z,52.18
2023-04-28T07:21:18.792Z,51.88
2023-04-28T07:23:47.069Z,51.78
2023-04-28T07:26:16.533Z,51.54
2023-04-28T07:28:45.304Z,50.56
2023-04-28T07:31:14.069Z,50.49
2023-04-28T07:33:42.670Z,50.57
2023-04-28T07:36:11.256Z,49.58
2023-04-28T07:38:39.737Z,49.18
2023-04-28T07:41:10.046Z,49.61
2023-04-28T07:43:41.106Z,49.00
2023-04-28T07:46:18.755Z,48.51
2023-04-28T07:48:47.213Z,47.07
2023-04-28T07:51:15.686Z,46.63
2023-04-28T07:53:44.062Z,45.89
2023-04-28T07:56:13.256Z,44.68
2023-04-28T07:58:41.643Z,44.02
2023-04-28T08:01:10.134Z,44.20
2023-04-28T08:03:38.766Z,44.45
2023-04-28T08:06:07.903Z,44.88
2023-04-28T08:08:36.261Z,44.51
2023-04-28T08:11:05.222Z,42.84
2023-04-28T08:13:33.891Z,42.50
2023-04-28T08:16:02.216Z,42.59
2023-04-28T08:18:30.694Z,42.60
2023-04-28T08:20:58.943Z,42.50
2023-04-28T08:23:28.559Z,41.70
2023-04-28T08:25:56.950Z,41.85
2023-04-28T08:28:25.635Z,41.85
2023-04-28T08:30:55.803Z,41.14
2023-04-28T08:33:24.958Z,41.01
2023-04-28T08:35:53.650Z,40.49
2023-04-28T08:38:24.282Z,39.55
2023-04-28T08:40:52.880Z,39.90
2023-04-28T08:43:21.911Z,39.99
2023-04-28T08:45:50.578Z,39.82
2023-04-28T08:48:21.270Z,38.71
2023-04-28T08:50:52.048Z,38.10
2023-04-28T08:53:23.819Z,37.08
2023-04-28T08:55:56.733Z,36.11
2023-04-28T08:58:26.623Z,37.22
2023-04-28T09:00:55.003Z,37.29
2023-04-28T09:03:23.571Z,38.02
2023-04-28T09:05:51.973Z,37.92
2023-04-28T09:08:20.790Z,37.61
2023-04-28T09:10:49.048Z,37.28
2023-04-28T09:13:26.857Z,36.78
2023-04-28T09:16:08.339Z,35.21
2023-04-28T09:18:57.543Z,36.08
2023-04-28T09:21:25.767Z,36.47
2023-04-28T09:23:54.157Z,36.25
2023-04-28T09:26:22.432Z,35.60
2023-04-28T09:28:51.032Z,35.01
2023-04-28T09:31:28.457Z,35.04
2023-04-28T09:33:58.437Z,34.42
2023-04-28T09:36:29.685Z,33.86
2023-04-28T09:39:01.720Z,33.98
2023-04-28T09:41:40.837Z,33.99
2023-04-28T09:44:21.933Z,34.05
2023-04-28T09:46:50.657Z,34.68
2023-04-28T09:49:19.344Z,34.54
2023-04-28T09:51:47.851Z,33.67
2023-04-28T09:54:16.808Z,33.57
2023-04-28T09:56:47.876Z,33.18
2023-04-28T09:59:16.364Z,33.23
2023-04-28T10:01:46.394Z,33.73
2023-04-28T10:04:15.455Z,33.40
2023-04-28T10:06:44.929Z,33.47
2023-04-28T10:09:14.342Z,32.81
2023-04-28T10:11:42.723Z,31.80
2023-04-28T10:14:12.142Z,29.84
2023-04-28T10:16:40.786Z,28.91
2023-04-28T10:19:09.884Z,28.64
2023-04-28T10:21:48.080Z,29.73
2023-04-28T10:24:30.074Z,28.79
2023-04-28T10:27:03.323Z,27.59
2023-04-28T10:29:33.726Z,26.16
2023-04-28T10:32:22.075Z,26.80
2023-04-28T10:34:50.850Z,27.55
2023-04-28T10:37:20.368Z,27.83
2023-04-28T10:40:26.960Z,26.89
2023-04-28T10:42:59.240Z,25.35
2023-04-28T10:45:50.428Z,25.93
2023-04-28T10:48:23.200Z,26.65
2023-04-28T10:51:07.018Z,26.57
2023-04-28T10:53:48.327Z,27.54
2023-04-28T10:56:27.841Z,27.32
2023-04-28T10:58:59.522Z,27.15
2023-04-28T11:01:30.860Z,26.89
2023-04-28T11:04:00.955Z,26.82
2023-04-28T11:06:40.793Z,27.25
2023-04-28T11:09:15.606Z,27.78
2023-04-28T11:12:07.913Z,28.25
2023-04-28T11:14:37.991Z,28.29
2023-04-28T11:17:08.701Z,28.34
2023-04-28T11:19:42.277Z,28.51
2023-04-28T11:22:17.826Z,28.77
2023-04-28T11:24:59.971Z,28.71
2023-04-28T11:27:30.453Z,29.19
2023-04-28T11:30:00.012Z,29.16
2023-04-28T11:32:33.365Z,28.55
2023-04-28T11:35:02.426Z,27.91
2023-04-28T11:37:31.334Z,27.09
2023-04-28T11:40:10.097Z,26.29
2023-04-28T11:42:48.148Z,26.00
2023-04-28T11:45:16.838Z,26.50
2023-04-28T11:47:45.436Z,26.68
2023-04-28T11:50:15.970Z,28.16
2023-04-28T11:52:53.514Z,28.94
2023-04-28T11:55:22.658Z,29.40
2023-04-28T11:58:19.884Z,29.95
2023-04-28T12:01:15.612Z,30.03
2023-04-28T12:03:48.274Z,29.69
2023-04-28T12:06:20.269Z,29.07
2023-04-28T12:08:49.475Z,28.75
2023-04-28T12:11:20.113Z,28.76
2023-04-28T12:14:08.032Z,27.77
2023-04-28T12:16:44.270Z,27.94
2023-04-28T12:19:13.271Z,28.43
2023-04-28T12:21:42.297Z,28.89
2023-04-28T12:24:18.251Z,28.49
2023-04-28T12:26:48.223Z,28.01
2023-04-28T12:29:36.454Z,27.75
2023-04-28T12:32:06.833Z,27.61
2023-04-28T12:34:36.655Z,27.16
2023-04-28T12:37:05.917Z,24.96
2023-04-28T12:39:39.459Z,24.88
2023-04-28T12:42:08.649Z,23.99
2023-04-28T12:44:38.132Z,24.77
2023-04-28T12:47:08.208Z,25.10
2023-04-28T12:49:36.696Z,25.69
2023-04-28T12:52:06.056Z,25.75
2023-04-28T12:54:34.308Z,25.16
2023-04-28T12:57:04.087Z,25.18
2023-04-28T12:59:32.884Z,25.10
2023-04-28T13:02:01.207Z,24.89
2023-04-28T13:04:31.554Z,25.63
2023-04-28T13:07:00.180Z,25.40
2023-04-28T13:09:28.848Z,24.79
2023-04-28T13:11:57.052Z,24.27
2023-04-28T13:14:27.044Z,24.49
2023-04-28T13:16:55.670Z,23.92
2023-04-28T13:19:24.766Z,23.61
2023-04-28T13:21:54.169Z,22.10
2023-04-28T13:24:23.174Z,22.20
2023-04-28T13:26:52.447Z,21.21
2023-04-28T13:29:21.014Z,20.54
2023-04-28T13:31:49.630Z,20.61
2023-04-28T13:34:19.220Z,19.87
2023-04-28T13:36:50.846Z,18.82
2023-04-28T13:39:20.544Z,18.87
2023-04-28T13:41:49.639Z,18.97
2023-04-28T13:44:18.139Z,19.59
2023-04-28T13:46:50.300Z,19.54
2023-04-28T13:49:24.016Z,19.05
2023-04-28T13:51:54.553Z,19.28
2023-04-28T13:54:23.224Z,19.04
2023-04-28T13:56:51.811Z,18.79
2023-04-28T13:59:25.889Z,18.37
2023-04-28T14:02:02.806Z,18.58
2023-04-28T14:04:31.382Z,18.67
2023-04-28T14:06:59.984Z,18.04
2023-04-28T14:09:28.376Z,18.01
2023-04-28T14:11:59.436Z,18.27
2023-04-28T14:14:27.692Z,17.93
2023-04-28T14:17:02.797Z,17.70
2023-04-28T14:19:45.747Z,17.57
2023-04-28T14:22:13.935Z,16.82
2023-04-28T14:24:43.452Z,17.17
2023-04-28T14:27:13.995Z,17.54
2023-04-28T14:29:43.189Z,17.07
2023-04-28T14:32:11.975Z,16.96
2023-04-28T14:34:40.463Z,17.09
2023-04-28T14:37:09.734Z,17.24
2023-04-28T14:39:40.195Z,17.97
2023-04-28T14:42:13.831Z,18.42
2023-04-28T14:44:47.140Z,19.23
2023-04-28T14:47:16.195Z,19.10
2023-04-28T14:49:44.633Z,18.62
2023-04-28T14:52:13.771Z,18.01
2023-04-28T14:54:42.188Z,17.70
2023-04-28T14:57:10.656Z,17.23
2023-04-28T14:59:38.955Z,16.95
2023-04-28T15:02:08.178Z,17.00
2023-04-28T15:04:39.141Z,17.62
2023-04-28T15:07:10.538Z,17.57
2023-04-28T15:09:39.231Z,17.02
2023-04-28T15:12:07.816Z,17.23
2023-04-28T15:14:36.819Z,17.68
2023-04-28T15:17:08.283Z,17.50
2023-04-28T15:19:37.062Z,17.51
2023-04-28T15:22:05.828Z,17.43
2023-04-28T15:24:34.240Z,17.12
2023-04-28T15:27:04.270Z,17.24
2023-04-28T15:29:33.168Z,17.34
2023-04-28T15:32:02.886Z,17.29
2023-04-28T15:34:31.257Z,17.15
2023-04-28T15:36:59.754Z,17.91
2023-04-28T15:39:28.682Z,17.21
2023-04-28T15:41:56.924Z,17.40
2023-04-28T15:44:25.128Z,17.69
2023-04-28T15:46:54.010Z,17.78
2023-04-28T15:49:23.304Z,17.53
2023-04-28T15:51:52.542Z,17.70
2023-04-28T15:54:21.108Z,17.98
2023-04-28T15:56:49.501Z,18.26
2023-04-28T15:59:19.214Z,19.02
2023-04-28T16:01:47.789Z,19.88
2023-04-28T16:04:16.353Z,20.63
2023-04-28T16:06:44.866Z,20.99
2023-04-28T16:09:13.149Z,20.90
2023-04-28T16:11:42.148Z,20.90
2023-04-28T16:14:10.440Z,20.59
2023-04-28T16:16:39.494Z,20.82
2023-04-28T16:19:08.627Z,20.71
2023-04-28T16:21:36.915Z,20.96
2023-04-28T16:24:05.864Z,21.57
2023-04-28T16:26:34.824Z,21.83
2023-04-28T16:29:03.300Z,22.04
2023-04-28T16:31:32.662Z,22.41
2023-04-28T16:34:00.994Z,22.52
2023-04-28T16:36:35.858Z,22.63
2023-04-28T16:39:10.088Z,22.93
2023-04-28T16:41:43.577Z,23.35
2023-04-28T16:44:12.340Z,23.87
2023-04-28T16:46:41.563Z,24.54
2023-04-28T16:49:10.290Z,24.99
2023-04-28T16:51:39.937Z,25.72
2023-04-28T16:54:08.543Z,26.31
2023-04-28T16:56:39.159Z,26.47
2023-04-28T16:59:07.650Z,27.02
2023-04-28T17:01:36.455Z,27.41
2023-04-28T17:04:07.065Z,27.75
2023-04-28T17:06:35.678Z,28.09
2023-04-28T17:09:04.157Z,28.41
2023-04-28T17:11:32.542Z,28.96
2023-04-28T17:14:01.042Z,29.00
2023-04-28T17:16:33.215Z,29.40
2023-04-28T17:19:02.571Z,29.82
2023-04-28T17:21:31.628Z,30.29
2023-04-28T17:24:00.982Z,30.39
2023-04-28T17:26:30.964Z,30.70
2023-04-28T17:29:00.313Z,30.89
2023-04-28T17:31:29.667Z,31.43
2023-04-28T17:33:59.907Z,31.55
2023-04-28T17:36:28.881Z,31.67
2023-04-28T17:38:57.968Z,31.94
2023-04-28T17:41:26.366Z,32.14
2023-04-28T17:43:54.597Z,32.11
2023-04-28T17:46:23.155Z,32.33
2023-04-28T17:48:52.343Z,32.47
2023-04-28T17:51:21.232Z,33.25
2023-04-28T17:53:49.503Z,34.07
2023-04-28T17:56:17.792Z,34.00
2023-04-28T17:58:45.969Z,34.13
2023-04-28T18:01:14.146Z,34.33
2023-04-28T18:03:43.259Z,34.85
2023-04-28T18:06:16.560Z,35.22
2023-04-28T18:08:45.047Z,35.75
2023-04-28T18:11:13.516Z,36.40
2023-04-28T18:13:41.912Z,37.60
2023-04-28T18:16:14.962Z,37.74
2023-04-28T18:18:43.390Z,38.06
2023-04-28T18:21:11.764Z,38.30
2023-04-28T18:23:40.037Z,38.66
2023-04-28T18:26:09.053Z,39.45
2023-04-28T18:28:37.631Z,39.59
2023-04-28T18:31:06.601Z,39.69
2023-04-28T18:33:36.867Z,40.47
2023-04-28T18:36:07.528Z,40.31
2023-04-28T18:38:36.781Z,41.25
2023-04-28T18:41:16.799Z,41.86
2023-04-28T18:43:45.448Z,41.59
2023-04-28T18:46:14.996Z,42.11
2023-04-28T18:48:43.946Z,43.04
2023-04-28T18:51:12.755Z,43.99
2023-04-28T18:53:41.443Z,43.99
2023-04-28T18:56:09.715Z,44.08
2023-04-28T18:58:40.864Z,44.71
2023-04-28T19:01:17.218Z,44.68
2023-04-28T19:03:46.219Z,45.22
2023-04-28T19:06:18.564Z,45.59
2023-04-28T19:08:47.014Z,45.96
2023-04-28T19:11:15.580Z,46.00
2023-04-28T19:13:47.439Z,46.16
2023-04-28T19:16:19.036Z,46.04
2023-04-28T19:18:47.796Z,46.54
2023-04-28T19:21:17.862Z,47.17
2023-04-28T19:23:48.794Z,46.94
2023-04-28T19:26:17.279Z,46.93
2023-04-28T19:28:45.940Z,47.73
2023-04-28T19:31:14.919Z,48.19
2023-04-28T19:33:43.421Z,49.58
2023-04-28T19:36:11.804Z,50.16
2023-04-28T19:38:40.486Z,50.01
2023-04-28T19:41:09.193Z,50.27
2023-04-28T19:43:37.981Z,50.26
2023-04-28T19:46:09.396Z,50.36
2023-04-28T19:48:46.140Z,50.33
2023-04-28T19:51:19.771Z,50.77
2023-04-28T19:53:52.672Z,51.55
2023-04-28T19:56:21.596Z,51.80
2023-04-28T19:58:50.212Z,52.60
2023-04-28T20:01:19.009Z,52.34
2023-04-28T20:03:47.656Z,53.10
2023-04-28T20:06:17.616Z,54.08
2023-04-28T20:08:46.284Z,53.93
2023-04-28T20:11:14.589Z,53.88
2023-04-28T20:13:42.867Z,54.00
2023-04-28T20:16:11.709Z,53.93
2023-04-28T20:18:40.845Z,54.14
2023-04-28T20:21:10.057Z,54.56
2023-04-28T20:23:38.641Z,55.02
2023-04-28T20:26:12.960Z,56.16
2023-04-28T20:28:45.744Z,56.46
2023-04-28T20:31:15.465Z,56.05
2023-04-28T20:33:44.352Z,55.63
2023-04-28T20:36:13.150Z,55.52
2023-04-28T20:38:42.763Z,55.32
2023-04-28T20:41:11.364Z,55.54
2023-04-28T20:43:40.452Z,55.60
2023-04-28T20:46:16.957Z,55.58
2023-04-28T20:48:46.068Z,56.41
2023-04-28T20:51:14.719Z,56.15
2023-04-28T20:53:43.612Z,56.25
2023-04-28T20:56:12.278Z,56.05
2023-04-28T20:58:43.244Z,56.00
2023-04-28T21:01:11.752Z,56.28
2023-04-28T21:03:41.475Z,57.03
2023-04-28T21:06:10.450Z,58.05
2023-04-28T21:08:40.873Z,57.45
2023-04-28T21:11:14.032Z,56.91
2023-04-28T21:13:43.487Z,56.89
2023-04-28T21:16:21.645Z,56.79
2023-04-28T21:18:51.165Z,57.19
2023-04-28T21:21:19.696Z,57.56
2023-04-28T21:23:48.167Z,58.12
2023-04-28T21:26:16.447Z,57.95
2023-04-28T21:28:47.190Z,58.11
2023-04-28T21:31:15.686Z,58.35
2023-04-28T21:33:44.060Z,58.42
2023-04-28T21:36:12.733Z,58.38
2023-04-28T21:38:41.256Z,58.24
2023-04-28T21:41:12.585Z,58.30
2023-04-28T21:43:40.776Z,58.48
2023-04-28T21:46:09.813Z,58.50
2023-04-28T21:48:38.770Z,59.24
2023-04-28T21:51:07.567Z,59.19
2023-04-28T21:53:36.357Z,59.21
2023-04-28T21:56:05.784Z,59.34
2023-04-28T21:58:35.377Z,59.24
2023-04-28T22:01:05.479Z,59.43
2023-04-28T22:03:37.363Z,59.71
2023-04-28T22:06:06.366Z,59.76
2023-04-28T22:08:34.642Z,60.13
2023-04-28T22:11:03.229Z,60.26
2023-04-28T22:13:31.616Z,60.22
2023-04-28T22:16:02.051Z,60.50
2023-04-28T22:18:30.861Z,60.38
2023-04-28T22:21:01.273Z,60.49
2023-04-28T22:23:29.872Z,60.71
2023-04-28T22:25:59.532Z,60.92
2023-04-28T22:28:27.959Z,60.68
2023-04-28T22:30:56.503Z,60.77
2023-04-28T22:33:25.043Z,60.69
2023-04-28T22:35:53.738Z,60.96
2023-04-28T22:38:22.039Z,60.61
2023-04-28T22:40:50.296Z,60.63
2023-04-28T22:43:18.799Z,60.49
2023-04-28T22:45:47.471Z,60.32
2023-04-28T22:48:16.450Z,60.61
2023-04-28T22:50:46.461Z,60.66
2023-04-28T22:53:14.778Z,60.71
2023-04-28T22:55:43.676Z,60.75
2023-04-28T22:58:12.156Z,60.85
2023-04-28T23:00:40.439Z,60.91
2023-04-28T23:03:08.997Z,60.94
2023-04-28T23:05:39.132Z,61.19
2023-04-28T23:08:07.843Z,61.25
2023-04-28T23:10:36.071Z,61.13
2023-04-28T23:13:04.530Z,61.18
2023-04-28T23:15:32.997Z,61.16
2023-04-28T23:18:01.936Z,61.16
2023-04-28T23:20:32.942Z,61.13
2023-04-28T23:23:01.318Z,60.94
2023-04-28T23:25:29.952Z,61.05
2023-04-28T23:27:58.499Z,60.88
2023-04-28T23:30:27.090Z,61.30
2023-04-28T23:32:55.953Z,61.38
2023-04-28T23:35:24.168Z,61.41
2023-04-28T23:37:52.654Z,61.30
2023-04-28T23:40:21.651Z,61.31
2023-04-28T23:42:50.036Z,61.01
2023-04-28T23:45:18.521Z,60.97
2023-04-28T23:47:47.965Z,60.70
2023-04-28T23:50:16.910Z,60.50
2023-04-28T23:52:46.439Z,60.60
2023-04-28T23:55:14.731Z,60.70
2023-04-28T23:57:43.001Z,60.45
